createdAt,value
2018-03-31T00:00:27.506Z,23.27
2018-03-31T00:02:54.491Z,27.50
2018-03-31T00:05:21.458Z,24.30
2018-03-31T00:07:48.437Z,23.73
2018-03-31T00:10:15.401Z,24.40
2018-03-31T00:12:42.393Z,20.93
2018-03-31T00:15:09.367Z,21.60
2018-03-31T00:17:36.346Z,22.50
2018-03-31T00:20:03.313Z,20.60
2018-03-31T00:22:31.078Z,21.03
2018-03-31T00:24:58.040Z,21.03
2018-03-31T00:27:25.013Z,20.50
2018-03-31T00:29:51.989Z,23.70
2018-03-31T00:32:18.967Z,20.03
2018-03-31T00:34:45.960Z,18.13
2018-03-31T00:37:13.696Z,20.73
2018-03-31T00:39:40.672Z,19.40
2018-03-31T00:42:08.419Z,19.00
2018-03-31T00:44:35.392Z,21.77
2018-03-31T00:47:03.127Z,21.03
2018-03-31T00:49:30.115Z,19.53
2018-03-31T00:51:57.846Z,17.17
2018-03-31T00:54:24.819Z,20.20
2018-03-31T00:56:51.794Z,21.67
2018-03-31T00:59:19.537Z,16.67
2018-03-31T01:01:46.508Z,18.30
2018-03-31T01:04:14.256Z,16.33
2018-03-31T01:06:41.989Z,17.57
2018-03-31T01:09:08.965Z,17.07
2018-03-31T01:11:35.993Z,17.70
2018-03-31T01:14:02.968Z,15.30
2018-03-31T01:16:29.944Z,19.20
2018-03-31T01:18:57.684Z,17.27
2018-03-31T01:21:24.660Z,17.23
2018-03-31T01:23:52.406Z,19.70
2018-03-31T01:26:19.376Z,18.30
2018-03-31T01:28:47.113Z,16.80
2018-03-31T01:31:14.084Z,19.10
2018-03-31T01:33:41.185Z,16.23
2018-03-31T01:36:08.165Z,15.90
2018-03-31T01:38:35.145Z,16.53
2018-03-31T01:41:02.106Z,16.23
2018-03-31T01:43:29.856Z,16.13
2018-03-31T01:45:58.344Z,16.97
2018-03-31T01:48:25.344Z,17.10
2018-03-31T01:50:52.323Z,20.07
2018-03-31T01:53:19.289Z,16.23
2018-03-31T01:55:46.267Z,17.00
2018-03-31T01:58:13.242Z,17.40
2018-03-31T02:00:40.205Z,13.97
2018-03-31T02:03:07.201Z,15.23
2018-03-31T02:05:34.168Z,16.27
2018-03-31T02:08:01.921Z,14.47
2018-03-31T02:10:28.904Z,14.40
2018-03-31T02:12:55.876Z,17.53
2018-03-31T02:15:22.865Z,18.73
2018-03-31T02:17:49.834Z,14.87
2018-03-31T02:20:17.573Z,14.23
2018-03-31T02:22:44.549Z,13.43
2018-03-31T02:25:11.535Z,13.97
2018-03-31T02:27:38.565Z,13.83
2018-03-31T02:30:06.324Z,14.27
2018-03-31T02:32:33.290Z,14.50
2018-03-31T02:35:00.274Z,13.90
2018-03-31T02:37:27.245Z,14.07
2018-03-31T02:39:54.217Z,13.77
2018-03-31T02:42:21.195Z,13.93
2018-03-31T02:44:48.170Z,13.87
2018-03-31T02:47:15.162Z,14.00
2018-03-31T02:49:42.141Z,13.47
2018-03-31T02:52:09.114Z,13.50
2018-03-31T02:54:36.094Z,14.00
2018-03-31T02:57:03.053Z,13.00
2018-03-31T02:59:30.092Z,13.90
2018-03-31T03:01:57.077Z,15.97
2018-03-31T03:04:24.047Z,13.40
2018-03-31T03:06:51.784Z,14.20
2018-03-31T03:09:18.773Z,13.70
2018-03-31T03:11:45.752Z,12.90
2018-03-31T03:14:12.745Z,13.47
2018-03-31T03:16:40.482Z,13.03
2018-03-31T03:19:07.469Z,13.20
2018-03-31T03:21:34.439Z,13.63
2018-03-31T03:24:02.184Z,14.43
2018-03-31T03:26:29.166Z,13.17
2018-03-31T03:28:56.130Z,13.37
2018-03-31T03:31:23.115Z,14.23
2018-03-31T03:33:50.093Z,13.73
2018-03-31T03:36:17.835Z,14.07
2018-03-31T03:38:44.796Z,12.80
2018-03-31T03:41:11.794Z,15.50
2018-03-31T03:43:38.772Z,12.63
2018-03-31T03:46:05.754Z,13.50
2018-03-31T03:48:32.721Z,15.03
2018-03-31T03:50:59.696Z,16.33
2018-03-31T03:53:26.676Z,12.87
2018-03-31T03:55:53.714Z,13.13
2018-03-31T03:58:20.697Z,12.63
2018-03-31T04:00:47.657Z,13.73
2018-03-31T04:03:16.157Z,13.37
2018-03-31T04:05:43.115Z,13.00
2018-03-31T04:08:10.859Z,13.10
2018-03-31T04:10:38.011Z,13.60
2018-03-31T04:13:04.984Z,13.93
2018-03-31T04:15:31.959Z,12.10
2018-03-31T04:17:58.940Z,12.47
2018-03-31T04:20:25.896Z,12.87
2018-03-31T04:22:52.872Z,12.97
2018-03-31T04:25:19.836Z,13.03
2018-03-31T04:27:46.812Z,13.27
2018-03-31T04:30:13.807Z,12.63
2018-03-31T04:32:40.776Z,13.30
2018-03-31T04:35:07.738Z,14.17
2018-03-31T04:37:34.715Z,13.80
2018-03-31T04:40:01.678Z,11.73
2018-03-31T04:42:28.661Z,12.53
2018-03-31T04:44:55.636Z,13.07
2018-03-31T04:47:22.613Z,12.93
2018-03-31T04:49:49.582Z,12.20
2018-03-31T04:52:16.578Z,12.40
2018-03-31T04:54:45.048Z,12.70
2018-03-31T04:57:12.018Z,13.47
2018-03-31T04:59:39.005Z,12.50
2018-03-31T05:02:05.993Z,12.90
2018-03-31T05:04:32.956Z,13.80
2018-03-31T05:06:59.939Z,15.87
2018-03-31T05:09:27.683Z,11.83
2018-03-31T05:11:54.683Z,11.83
2018-03-31T05:14:21.636Z,12.20
2018-03-31T05:16:48.605Z,12.40
2018-03-31T05:19:15.600Z,11.80
2018-03-31T05:21:42.570Z,12.03
2018-03-31T05:24:10.320Z,14.70
2018-03-31T05:26:37.301Z,11.67
2018-03-31T05:29:04.294Z,14.63
2018-03-31T05:31:31.270Z,13.60
2018-03-31T05:33:58.304Z,12.33
2018-03-31T05:36:25.277Z,12.70
2018-03-31T05:38:52.262Z,13.23
2018-03-31T05:41:19.247Z,11.53
2018-03-31T05:43:46.232Z,14.80
2018-03-31T05:46:13.220Z,14.97
2018-03-31T05:48:40.184Z,12.37
2018-03-31T05:51:07.190Z,11.60
2018-03-31T05:53:34.503Z,18.10
2018-03-31T05:56:01.560Z,11.03
2018-03-31T05:58:28.538Z,10.80
2018-03-31T06:03:32.999Z,10.57
2018-03-31T06:06:00.712Z,10.50
2018-03-31T06:08:27.673Z,10.47
2018-03-31T06:10:54.651Z,10.40
2018-03-31T06:13:21.649Z,9.60
2018-03-31T06:15:48.620Z,11.53
2018-03-31T06:18:15.605Z,9.77
2018-03-31T06:20:42.580Z,9.40
2018-03-31T06:23:20.763Z,9.40
2018-03-31T06:25:47.741Z,9.80
2018-03-31T06:28:15.465Z,9.57
2018-03-31T06:30:42.437Z,10.07
2018-03-31T06:33:09.457Z,8.87
2018-03-31T06:35:36.476Z,13.17
2018-03-31T06:38:03.508Z,22.43
2018-03-31T06:40:31.233Z,9.43
2018-03-31T06:42:58.238Z,10.43
2018-03-31T06:45:26.052Z,13.43
2018-03-31T06:47:53.033Z,8.73
2018-03-31T06:50:20.004Z,8.77
2018-03-31T06:52:47.769Z,7.53
2018-03-31T06:55:14.741Z,7.33
2018-03-31T06:57:41.712Z,9.73
2018-03-31T07:00:08.680Z,8.90
2018-03-31T07:02:35.682Z,7.27
2018-03-31T07:05:03.422Z,8.43
2018-03-31T07:07:30.404Z,7.03
2018-03-31T07:09:58.129Z,6.50
2018-03-31T07:12:25.097Z,6.70
2018-03-31T07:14:52.082Z,6.90
2018-03-31T07:17:19.123Z,12.57
2018-03-31T07:19:46.893Z,6.83
2018-03-31T07:22:13.909Z,7.50
2018-03-31T07:24:40.821Z,7.43
2018-03-31T07:27:07.844Z,10.50
2018-03-31T07:29:35.741Z,7.53
2018-03-31T07:32:02.721Z,10.60
2018-03-31T07:34:29.713Z,11.03
2018-03-31T07:36:57.448Z,14.80
2018-03-31T07:39:24.432Z,12.77
2018-03-31T07:41:52.181Z,12.77
2018-03-31T07:44:19.190Z,12.60
2018-03-31T07:46:46.277Z,13.27
2018-03-31T07:49:13.310Z,12.70
2018-03-31T07:51:40.450Z,17.17
2018-03-31T07:54:07.510Z,18.77
2018-03-31T07:56:34.505Z,19.93
2018-03-31T07:59:01.476Z,15.47
2018-03-31T08:01:28.456Z,27.27
2018-03-31T08:03:55.425Z,27.23
2018-03-31T08:06:22.436Z,28.97
2018-03-31T08:08:49.428Z,23.73
2018-03-31T08:11:16.576Z,28.23
2018-03-31T08:13:43.580Z,27.50
2018-03-31T08:16:10.565Z,20.93
2018-03-31T08:18:37.535Z,27.57
2018-03-31T08:21:04.513Z,27.10
2018-03-31T08:23:31.476Z,21.57
2018-03-31T08:25:59.228Z,23.33
2018-03-31T08:28:26.199Z,27.80
2018-03-31T08:30:53.933Z,17.90
2018-03-31T08:33:20.921Z,20.33
2018-03-31T08:35:48.660Z,17.90
2018-03-31T08:38:15.625Z,20.03
2018-03-31T08:40:43.363Z,17.90
2018-03-31T08:43:10.360Z,15.77
2018-03-31T08:45:37.331Z,15.73
2018-03-31T08:48:04.309Z,15.27
2018-03-31T08:50:31.280Z,16.17
2018-03-31T08:52:59.039Z,16.10
2018-03-31T08:55:26.080Z,18.93
2018-03-31T08:57:53.048Z,17.07
2018-03-31T09:00:20.036Z,15.80
2018-03-31T09:02:47.018Z,12.40
2018-03-31T09:05:13.993Z,15.53
2018-03-31T09:07:40.980Z,12.80
2018-03-31T09:10:08.737Z,12.93
2018-03-31T09:12:36.473Z,16.97
2018-03-31T09:15:03.492Z,14.23
2018-03-31T09:17:30.430Z,11.47
2018-03-31T09:19:58.154Z,11.63
2018-03-31T09:22:25.129Z,13.93
2018-03-31T09:24:52.934Z,11.60
2018-03-31T09:27:19.893Z,12.10
2018-03-31T09:29:46.865Z,10.97
2018-03-31T09:32:13.836Z,10.03
2018-03-31T09:34:40.810Z,10.03
2018-03-31T09:37:07.772Z,13.20
2018-03-31T09:39:34.749Z,9.93
2018-03-31T09:42:01.721Z,9.83
2018-03-31T09:44:28.681Z,10.83
2018-03-31T09:46:55.664Z,10.50
2018-03-31T09:49:23.394Z,8.43
2018-03-31T09:51:50.353Z,10.13
2018-03-31T09:54:18.097Z,8.77
2018-03-31T09:56:45.081Z,11.30
2018-03-31T09:59:12.043Z,9.00
2018-03-31T10:01:39.024Z,10.67
2018-03-31T10:04:05.993Z,10.87
2018-03-31T10:06:32.967Z,9.10
2018-03-31T10:08:59.937Z,9.23
2018-03-31T10:11:26.909Z,8.67
2018-03-31T10:13:54.641Z,8.37
2018-03-31T10:16:21.613Z,7.20
2018-03-31T10:18:48.581Z,7.90
2018-03-31T10:21:16.330Z,8.57
2018-03-31T10:23:43.316Z,8.70
2018-03-31T10:26:10.294Z,8.93
2018-03-31T10:28:37.270Z,6.60
2018-03-31T10:31:04.230Z,6.83
2018-03-31T10:33:31.965Z,7.60
2018-03-31T10:36:05.792Z,6.97
2018-03-31T10:38:32.770Z,7.93
2018-03-31T10:41:00.501Z,7.23
2018-03-31T10:43:27.466Z,7.83
2018-03-31T10:45:54.436Z,7.23
2018-03-31T10:48:22.168Z,8.90
2018-03-31T10:50:49.141Z,6.90
2018-03-31T10:53:16.117Z,6.23
2018-03-31T10:55:43.848Z,5.83
2018-03-31T10:58:10.824Z,7.03
2018-03-31T11:00:38.569Z,6.17
2018-03-31T11:03:06.373Z,6.10
2018-03-31T11:05:33.298Z,6.00
2018-03-31T11:08:00.256Z,6.07
2018-03-31T11:10:28.005Z,5.80
2018-03-31T11:12:55.020Z,6.77
2018-03-31T11:15:21.954Z,6.40
2018-03-31T11:17:48.921Z,5.10
2018-03-31T11:20:15.890Z,7.10
2018-03-31T11:22:42.872Z,5.67
2018-03-31T11:25:09.837Z,5.10
2018-03-31T11:27:37.576Z,4.67
2018-03-31T11:30:04.541Z,5.37
2018-03-31T11:32:31.516Z,5.77
2018-03-31T11:34:58.497Z,4.53
2018-03-31T11:37:25.474Z,4.70
2018-03-31T11:39:52.447Z,5.53
2018-03-31T11:42:19.405Z,4.90
2018-03-31T11:44:46.390Z,4.20
2018-03-31T11:47:13.449Z,4.87
2018-03-31T11:49:40.417Z,4.17
2018-03-31T11:52:07.381Z,4.63
2018-03-31T11:54:34.348Z,4.37
2018-03-31T11:57:01.316Z,4.47
2018-03-31T11:59:29.068Z,3.50
2018-03-31T12:01:56.037Z,6.60
2018-03-31T12:04:23.782Z,3.50
2018-03-31T12:06:50.841Z,3.57
2018-03-31T12:09:19.316Z,4.20
2018-03-31T12:11:47.797Z,4.03
2018-03-31T12:14:14.760Z,3.40
2018-03-31T12:16:41.758Z,3.70
2018-03-31T12:19:08.741Z,3.73
2018-03-31T12:21:35.717Z,3.10
2018-03-31T12:24:02.685Z,3.60
2018-03-31T12:26:30.425Z,3.00
2018-03-31T12:28:57.389Z,3.13
2018-03-31T12:31:25.120Z,4.80
2018-03-31T12:33:52.110Z,3.80
2018-03-31T12:36:19.087Z,5.60
2018-03-31T12:38:46.045Z,3.73
2018-03-31T12:41:13.016Z,12.07
2018-03-31T12:43:39.984Z,3.17
2018-03-31T12:46:06.961Z,3.20
2018-03-31T12:48:33.932Z,2.57
2018-03-31T12:51:01.675Z,4.17
2018-03-31T12:53:28.646Z,2.97
2018-03-31T12:55:56.378Z,2.87
2018-03-31T12:58:23.353Z,2.83
2018-03-31T13:00:51.081Z,2.50
2018-03-31T13:03:18.057Z,2.60
2018-03-31T13:05:45.029Z,2.63
2018-03-31T13:08:12.773Z,3.73
2018-03-31T13:10:41.251Z,2.53
2018-03-31T13:13:08.233Z,7.17
2018-03-31T13:15:35.972Z,29.50
2018-03-31T13:18:02.941Z,40.63
2018-03-31T13:20:29.924Z,65.00
2018-03-31T13:22:56.889Z,62.37
2018-03-31T13:25:23.870Z,60.13
2018-03-31T13:27:50.845Z,56.90
2018-03-31T13:30:17.811Z,51.10
2018-03-31T13:32:44.799Z,48.20
2018-03-31T13:35:11.790Z,47.77
2018-03-31T13:37:40.275Z,41.70
2018-03-31T13:40:07.244Z,61.50
2018-03-31T13:42:34.987Z,66.80
2018-03-31T13:45:01.957Z,63.37
2018-03-31T13:47:29.705Z,67.20
2018-03-31T13:49:56.694Z,63.90
2018-03-31T13:52:23.651Z,63.93
2018-03-31T13:54:50.628Z,72.07
2018-03-31T13:57:17.618Z,63.83
2018-03-31T13:59:44.589Z,65.37
2018-03-31T14:02:12.348Z,61.63
2018-03-31T14:04:39.324Z,64.93
2018-03-31T14:07:06.297Z,66.37
2018-03-31T14:09:33.283Z,118.20
2018-03-31T14:12:00.273Z,100.57
2018-03-31T14:14:27.256Z,115.90
2018-03-31T14:16:54.227Z,105.13
2018-03-31T14:19:21.207Z,98.23
2018-03-31T14:21:48.181Z,90.90
2018-03-31T14:24:15.919Z,85.23
2018-03-31T14:26:42.890Z,74.13
2018-03-31T14:29:10.671Z,67.73
2018-03-31T14:31:38.399Z,64.50
2018-03-31T14:34:05.361Z,66.40
2018-03-31T14:36:32.351Z,56.67
2018-03-31T14:38:59.332Z,52.93
2018-03-31T14:41:26.296Z,56.53
2018-03-31T14:43:53.282Z,53.07
2018-03-31T14:46:21.028Z,50.17
2018-03-31T14:48:48.009Z,47.80
2018-03-31T14:51:15.754Z,46.60
2018-03-31T14:53:43.492Z,48.23
2018-03-31T14:56:10.469Z,42.47
2018-03-31T14:58:37.448Z,43.17
2018-03-31T15:01:04.518Z,42.60
2018-03-31T15:03:31.536Z,48.20
2018-03-31T15:05:59.399Z,40.97
2018-03-31T15:08:26.447Z,39.00
2018-03-31T15:10:53.458Z,37.57
2018-03-31T15:13:20.435Z,43.17
2018-03-31T15:15:47.423Z,36.13
2018-03-31T15:18:14.395Z,34.70
2018-03-31T15:20:41.369Z,33.40
2018-03-31T15:23:08.353Z,33.93
2018-03-31T15:25:36.089Z,29.13
2018-03-31T15:28:03.072Z,26.43
2018-03-31T15:30:30.813Z,27.83
2018-03-31T15:32:57.852Z,26.17
2018-03-31T15:35:24.818Z,25.37
2018-03-31T15:37:51.869Z,22.37
2018-03-31T15:40:18.843Z,20.47
2018-03-31T15:42:45.814Z,20.30
2018-03-31T15:45:13.553Z,19.70
2018-03-31T15:47:40.524Z,19.40
2018-03-31T15:50:08.322Z,19.97
2018-03-31T15:52:35.289Z,16.67
2018-03-31T15:55:02.275Z,17.10
2018-03-31T15:57:29.288Z,19.10
2018-03-31T15:59:56.217Z,16.43
2018-03-31T16:02:23.201Z,18.23
2018-03-31T16:04:50.222Z,13.80
2018-03-31T16:07:17.212Z,15.17
2018-03-31T16:09:44.169Z,16.07
2018-03-31T16:12:11.148Z,16.83
2018-03-31T16:14:38.115Z,14.17
2018-03-31T16:17:05.861Z,13.83
2018-03-31T16:19:33.611Z,13.03
2018-03-31T16:22:00.783Z,13.53
2018-03-31T16:24:29.253Z,13.73
2018-03-31T16:26:56.240Z,12.57
2018-03-31T16:29:23.983Z,13.73
2018-03-31T16:31:50.969Z,36.47
2018-03-31T16:34:18.701Z,41.63
2018-03-31T16:36:45.689Z,41.20
2018-03-31T16:39:12.682Z,61.63
2018-03-31T16:41:39.681Z,158.50
2018-03-31T16:44:07.437Z,122.97
2018-03-31T16:46:34.414Z,105.30
2018-03-31T16:49:01.393Z,93.13
2018-03-31T16:51:28.375Z,93.40
2018-03-31T16:53:55.341Z,77.87
2018-03-31T16:56:22.331Z,74.27
2018-03-31T16:58:49.301Z,67.47
2018-03-31T17:01:16.281Z,65.33
2018-03-31T17:03:43.277Z,59.60
2018-03-31T17:06:10.261Z,55.80
2018-03-31T17:08:37.277Z,59.93
2018-03-31T17:11:04.268Z,56.27
2018-03-31T17:13:31.248Z,51.20
2018-03-31T17:15:58.224Z,49.83
2018-03-31T17:18:25.196Z,47.40
2018-03-31T17:20:52.173Z,49.07
2018-03-31T17:23:19.167Z,44.60
2018-03-31T17:25:46.181Z,40.10
2018-03-31T17:28:13.149Z,40.77
2018-03-31T17:30:40.137Z,43.40
2018-03-31T17:33:07.142Z,41.40
2018-03-31T17:35:34.125Z,39.70
2018-03-31T17:38:01.853Z,35.37
2018-03-31T17:40:28.832Z,31.87
2018-03-31T17:42:55.845Z,34.43
2018-03-31T17:45:22.799Z,34.60
2018-03-31T17:47:49.758Z,34.00
2018-03-31T17:50:16.728Z,32.47
2018-03-31T17:52:43.701Z,34.33
2018-03-31T17:55:10.680Z,30.10
2018-03-31T17:57:37.674Z,30.97
2018-03-31T18:00:04.648Z,34.30
2018-03-31T18:02:32.390Z,31.20
2018-03-31T18:04:59.365Z,28.23
2018-03-31T18:07:27.119Z,32.23
2018-03-31T18:09:54.092Z,30.57
2018-03-31T18:12:21.838Z,28.03
2018-03-31T18:14:49.617Z,26.53
2018-03-31T18:17:17.355Z,25.90
2018-03-31T18:19:44.329Z,26.37
2018-03-31T18:22:11.312Z,27.10
2018-03-31T18:24:38.293Z,24.80
2018-03-31T18:27:05.308Z,27.40
2018-03-31T18:29:33.039Z,40.90
2018-03-31T18:32:00.792Z,27.43
2018-03-31T18:34:27.791Z,26.30
2018-03-31T18:36:55.749Z,30.20
2018-03-31T18:39:23.481Z,29.63
2018-03-31T18:41:50.698Z,25.33
2018-03-31T18:44:17.751Z,28.40
2018-03-31T18:46:44.733Z,26.13
2018-03-31T18:49:12.528Z,26.57
2018-03-31T18:51:41.004Z,24.53
2018-03-31T18:54:07.993Z,24.97
2018-03-31T18:56:35.740Z,26.40
2018-03-31T18:59:02.721Z,26.57
2018-03-31T19:01:30.644Z,25.73
2018-03-31T19:03:57.670Z,27.07
2018-03-31T19:06:24.883Z,24.93
2018-03-31T19:08:51.892Z,26.23
2018-03-31T19:11:18.876Z,24.80
2018-03-31T19:13:46.270Z,25.60
2018-03-31T19:16:13.209Z,24.40
2018-03-31T19:18:40.212Z,24.57
2018-03-31T19:21:07.905Z,23.60
2018-03-31T19:23:35.504Z,24.53
2018-03-31T19:26:03.135Z,24.23
2018-03-31T19:28:30.725Z,23.60
2018-03-31T19:31:34.924Z,23.57
2018-03-31T19:35:07.318Z,24.60
2018-03-31T19:39:49.962Z,23.77
2018-03-31T19:42:18.707Z,24.37
2018-03-31T19:47:13.610Z,24.60
2018-03-31T19:49:41.277Z,28.70
2018-03-31T19:52:08.884Z,24.73
2018-03-31T19:54:36.508Z,24.03
2018-03-31T19:57:04.221Z,29.60
2018-03-31T19:59:32.045Z,22.30
2018-03-31T20:01:59.677Z,26.17
2018-03-31T20:04:28.866Z,26.13
2018-03-31T20:06:56.473Z,21.67
2018-03-31T20:09:24.100Z,21.63
2018-03-31T20:11:51.713Z,22.70
2018-03-31T20:14:19.342Z,20.57
2018-03-31T20:16:47.099Z,21.20
2018-03-31T20:19:14.848Z,22.13
2018-03-31T20:21:42.433Z,20.73
2018-03-31T20:24:10.085Z,21.10
2018-03-31T20:26:37.698Z,21.57
2018-03-31T20:29:06.084Z,23.83
2018-03-31T20:31:34.467Z,23.73
2018-03-31T20:34:02.134Z,27.13
2018-03-31T20:36:29.733Z,25.47
2018-03-31T20:38:57.437Z,65.70
2018-03-31T20:41:26.684Z,95.67
2018-03-31T20:43:55.273Z,136.43
2018-03-31T20:46:22.954Z,86.90
2018-03-31T20:48:50.653Z,82.73
2018-03-31T20:51:18.284Z,133.07
2018-03-31T20:53:46.013Z,150.27
2018-03-31T20:56:14.444Z,348.93
2018-03-31T20:58:42.314Z,172.77
2018-03-31T21:01:09.980Z,163.27
2018-03-31T21:03:37.758Z,146.93
2018-03-31T21:06:05.408Z,136.43
2018-03-31T21:08:33.020Z,129.70
2018-03-31T21:11:00.636Z,123.57
2018-03-31T21:13:28.245Z,114.43
2018-03-31T21:15:56.304Z,107.70
2018-03-31T21:18:23.889Z,97.23
2018-03-31T21:20:51.512Z,98.83
2018-03-31T21:23:19.110Z,89.63
2018-03-31T21:25:46.739Z,94.30
2018-03-31T21:28:14.329Z,81.07
2018-03-31T21:30:41.946Z,84.13
2018-03-31T21:33:09.559Z,75.83
2018-03-31T21:35:37.355Z,77.23
2018-03-31T21:38:04.918Z,76.30
2018-03-31T21:40:32.722Z,69.57
2018-03-31T21:43:00.380Z,65.57
2018-03-31T21:45:28.955Z,65.30
2018-03-31T21:47:56.713Z,62.97
2018-03-31T21:50:24.313Z,57.60
2018-03-31T21:52:52.827Z,55.63
2018-03-31T21:55:20.421Z,57.43
2018-03-31T21:57:48.037Z,57.33
2018-03-31T22:00:15.641Z,52.83
2018-03-31T22:02:43.269Z,55.77
2018-03-31T22:05:10.875Z,49.90
2018-03-31T22:07:39.985Z,53.47
2018-03-31T22:10:07.606Z,46.47
2018-03-31T22:12:35.204Z,45.93
2018-03-31T22:15:08.633Z,48.97
2018-03-31T22:17:37.001Z,45.30
2018-03-31T22:20:04.612Z,47.07
2018-03-31T22:22:32.244Z,43.90
2018-03-31T22:25:00.635Z,39.10
2018-03-31T22:27:29.011Z,39.47
2018-03-31T22:29:57.411Z,38.27
2018-03-31T22:32:26.784Z,37.87
2018-03-31T22:34:55.905Z,39.20
2018-03-31T22:37:24.275Z,38.33
2018-03-31T22:39:52.666Z,35.90
2018-03-31T22:42:20.340Z,37.87
2018-03-31T22:44:48.721Z,37.07
2018-03-31T22:47:17.101Z,35.20
2018-03-31T22:49:45.507Z,33.20
2018-03-31T22:52:13.121Z,33.10
2018-03-31T22:54:40.721Z,32.90
2018-03-31T22:57:09.101Z,33.83
2018-03-31T22:59:36.703Z,34.17
2018-03-31T23:02:04.433Z,31.03
2018-03-31T23:04:32.053Z,30.90
2018-03-31T23:06:59.649Z,30.07
2018-03-31T23:09:28.034Z,30.97
2018-03-31T23:11:56.409Z,30.13
2018-03-31T23:14:24.029Z,27.27
2018-03-31T23:16:51.645Z,28.10
2018-03-31T23:19:19.249Z,28.73
2018-03-31T23:21:47.604Z,30.60
2018-03-31T23:24:16.021Z,28.30
2018-03-31T23:26:44.379Z,27.23
2018-03-31T23:29:11.989Z,28.20
2018-03-31T23:31:39.596Z,28.47
2018-03-31T23:34:07.969Z,25.17
2018-03-31T23:36:35.576Z,25.20
2018-03-31T23:39:03.189Z,27.30
2018-03-31T23:41:30.792Z,25.77
2018-03-31T23:43:58.396Z,26.00
2018-03-31T23:46:26.001Z,25.70
2018-03-31T23:48:54.377Z,23.70
2018-03-31T23:51:22.757Z,24.13
2018-03-31T23:53:50.368Z,22.67
2018-03-31T23:56:17.989Z,23.87
2018-03-31T23:58:45.594Z,23.10
